<?xml version="1.0" encoding="UTF-8" standalone="no" ?>
<gpx version="1.1" creator="Visorando" xmlns:xsi="http://www.w3.org/2001/XMLSchema-instance" xmlns="http://www.topografix.com/GPX/1/1" xsi:schemaLocation="http://www.topografix.com/GPX/1/1 http://www.topografix.com/GPX/1/1/gpx.xsd">
 <metadata>
  <name>Échelle des 16 écluses</name>
  <link href="https://www.visorando.com/randonnee-echelle-des-16-ecluses/">
   <text>https://www.visorando.com/randonnee-echelle-des-16-ecluses/</text>
  </link>
 </metadata>
 <wpt lat="47.193032" lon="3.700176">
  <ele>222</ele>
  <time>2020-05-22T17:31:40+02:00</time>
  <name>Parking au centre de Sardy-les-Épiry</name>
 </wpt>
 <wpt lat="47.191821" lon="3.697446">
  <ele>225</ele>
  <time>2020-05-22T17:31:55+02:00</time>
  <name>Virage à gauche</name>
 </wpt>
 <wpt lat="47.183309" lon="3.701614">
  <ele>261</ele>
  <time>2020-05-22T17:32:30+02:00</time>
  <name>Rigole de l’Yonne</name>
 </wpt>
 <wpt lat="47.178259" lon="3.695418">
  <ele>266</ele>
  <time>2020-05-22T17:33:15+02:00</time>
  <name>Entrée dans les bois</name>
 </wpt>
 <wpt lat="47.17687" lon="3.66166">
  <ele>270</ele>
  <time>2020-05-22T17:38:25+02:00</time>
  <name>Vers Port Brûlé</name>
 </wpt>
 <wpt lat="47.193344" lon="3.694133">
  <ele>220</ele>
  <time>2020-05-22T17:41:15+02:00</time>
  <name>Traversée de la D297 </name>
 </wpt>
 <wpt lat="47.200573" lon="3.686868">
  <ele>214</ele>
  <time>2020-05-22T17:42:15+02:00</time>
  <name>Pont</name>
 </wpt>
 <wpt lat="47.202133" lon="3.69184">
  <ele>229</ele>
  <time>2020-05-22T17:43:00+02:00</time>
  <name>Traversée de l'ancienne voie ferrée</name>
 </wpt>
 <wpt lat="47.201608" lon="3.701571">
  <ele>248</ele>
  <time>2020-05-22T17:44:20+02:00</time>
  <name>Traversée de la D985 </name>
 </wpt>
 <wpt lat="47.201025" lon="3.70766">
  <ele>222</ele>
  <time>2020-05-22T17:44:55+02:00</time>
  <name>À droite vers la D985 </name>
 </wpt>
 <wpt lat="47.195189" lon="3.702169">
  <ele>234</ele>
  <time>2020-05-22T17:45:40+02:00</time>
  <name>Traversée de l'ancienne voie ferrée</name>
 </wpt>
 <wpt lat="47.193025" lon="3.700195">
  <ele>222</ele>
  <time>2020-05-22T17:46:00+02:00</time>
  <name>Parking au centre de Sardy-les-Épiry</name>
 </wpt>
 <trk>
  <name>Échelle des 16 écluses</name>
  <trkseg>
   <trkpt lat="47.193032" lon="3.700176">
    <ele>222</ele>
    <time>2020-05-22T17:31:40+02:00</time>
   </trkpt>
   <trkpt lat="47.193229" lon="3.699926">
    <ele>221</ele>
    <time>2020-05-22T17:31:45+02:00</time>
   </trkpt>
   <trkpt lat="47.192579" lon="3.699272">
    <ele>223</ele>
    <time>2020-05-22T17:31:50+02:00</time>
   </trkpt>
   <trkpt lat="47.191821" lon="3.697446">
    <ele>225</ele>
    <time>2020-05-22T17:31:55+02:00</time>
   </trkpt>
   <trkpt lat="47.191373" lon="3.697666">
    <ele>227</ele>
    <time>2020-05-22T17:32:00+02:00</time>
   </trkpt>
   <trkpt lat="47.190896" lon="3.69821">
    <ele>228</ele>
    <time>2020-05-22T17:32:05+02:00</time>
   </trkpt>
   <trkpt lat="47.18903" lon="3.700012">
    <ele>235</ele>
    <time>2020-05-22T17:32:10+02:00</time>
   </trkpt>
   <trkpt lat="47.187724" lon="3.700402">
    <ele>240</ele>
    <time>2020-05-22T17:32:15+02:00</time>
   </trkpt>
   <trkpt lat="47.185832" lon="3.700617">
    <ele>247</ele>
    <time>2020-05-22T17:32:20+02:00</time>
   </trkpt>
   <trkpt lat="47.183955" lon="3.701557">
    <ele>256</ele>
    <time>2020-05-22T17:32:25+02:00</time>
   </trkpt>
   <trkpt lat="47.183309" lon="3.701614">
    <ele>261</ele>
    <time>2020-05-22T17:32:30+02:00</time>
   </trkpt>
   <trkpt lat="47.183145" lon="3.701019">
    <ele>261</ele>
    <time>2020-05-22T17:32:35+02:00</time>
   </trkpt>
   <trkpt lat="47.182565" lon="3.700531">
    <ele>261</ele>
    <time>2020-05-22T17:32:40+02:00</time>
   </trkpt>
   <trkpt lat="47.181894" lon="3.700016">
    <ele>261</ele>
    <time>2020-05-22T17:32:45+02:00</time>
   </trkpt>
   <trkpt lat="47.180757" lon="3.69941">
    <ele>264</ele>
    <time>2020-05-22T17:32:50+02:00</time>
   </trkpt>
   <trkpt lat="47.179553" lon="3.699013">
    <ele>262</ele>
    <time>2020-05-22T17:32:55+02:00</time>
   </trkpt>
   <trkpt lat="47.178809" lon="3.698358">
    <ele>261</ele>
    <time>2020-05-22T17:33:00+02:00</time>
   </trkpt>
   <trkpt lat="47.17831" lon="3.697409">
    <ele>261</ele>
    <time>2020-05-22T17:33:05+02:00</time>
   </trkpt>
   <trkpt lat="47.178069" lon="3.696507">
    <ele>264</ele>
    <time>2020-05-22T17:33:10+02:00</time>
   </trkpt>
   <trkpt lat="47.178259" lon="3.695418">
    <ele>266</ele>
    <time>2020-05-22T17:33:15+02:00</time>
   </trkpt>
   <trkpt lat="47.178296" lon="3.694862">
    <ele>267</ele>
    <time>2020-05-22T17:33:20+02:00</time>
   </trkpt>
   <trkpt lat="47.178806" lon="3.693841">
    <ele>268</ele>
    <time>2020-05-22T17:33:25+02:00</time>
   </trkpt>
   <trkpt lat="47.17889" lon="3.693198">
    <ele>267</ele>
    <time>2020-05-22T17:33:30+02:00</time>
   </trkpt>
   <trkpt lat="47.178642" lon="3.692688">
    <ele>267</ele>
    <time>2020-05-22T17:33:35+02:00</time>
   </trkpt>
   <trkpt lat="47.177883" lon="3.692205">
    <ele>269</ele>
    <time>2020-05-22T17:33:40+02:00</time>
   </trkpt>
   <trkpt lat="47.176757" lon="3.691358">
    <ele>271</ele>
    <time>2020-05-22T17:33:45+02:00</time>
   </trkpt>
   <trkpt lat="47.176115" lon="3.69102">
    <ele>270</ele>
    <time>2020-05-22T17:33:50+02:00</time>
   </trkpt>
   <trkpt lat="47.175671" lon="3.690485">
    <ele>271</ele>
    <time>2020-05-22T17:33:55+02:00</time>
   </trkpt>
   <trkpt lat="47.17563" lon="3.689743">
    <ele>273</ele>
    <time>2020-05-22T17:34:00+02:00</time>
   </trkpt>
   <trkpt lat="47.176148" lon="3.688772">
    <ele>272</ele>
    <time>2020-05-22T17:34:05+02:00</time>
   </trkpt>
   <trkpt lat="47.175768" lon="3.688112">
    <ele>274</ele>
    <time>2020-05-22T17:34:10+02:00</time>
   </trkpt>
   <trkpt lat="47.175783" lon="3.687592">
    <ele>276</ele>
    <time>2020-05-22T17:34:15+02:00</time>
   </trkpt>
   <trkpt lat="47.176064" lon="3.687538">
    <ele>276</ele>
    <time>2020-05-22T17:34:20+02:00</time>
   </trkpt>
   <trkpt lat="47.17652" lon="3.68772">
    <ele>276</ele>
    <time>2020-05-22T17:34:25+02:00</time>
   </trkpt>
   <trkpt lat="47.177577" lon="3.688134">
    <ele>277</ele>
    <time>2020-05-22T17:34:30+02:00</time>
   </trkpt>
   <trkpt lat="47.178839" lon="3.687747">
    <ele>277</ele>
    <time>2020-05-22T17:34:35+02:00</time>
   </trkpt>
   <trkpt lat="47.180173" lon="3.687672">
    <ele>277</ele>
    <time>2020-05-22T17:34:40+02:00</time>
   </trkpt>
   <trkpt lat="47.181351" lon="3.687522">
    <ele>277</ele>
    <time>2020-05-22T17:34:45+02:00</time>
   </trkpt>
   <trkpt lat="47.182696" lon="3.686991">
    <ele>279</ele>
    <time>2020-05-22T17:34:50+02:00</time>
   </trkpt>
   <trkpt lat="47.183673" lon="3.686277">
    <ele>278</ele>
    <time>2020-05-22T17:34:55+02:00</time>
   </trkpt>
   <trkpt lat="47.184483" lon="3.685258">
    <ele>276</ele>
    <time>2020-05-22T17:35:00+02:00</time>
   </trkpt>
   <trkpt lat="47.184669" lon="3.684609">
    <ele>275</ele>
    <time>2020-05-22T17:35:05+02:00</time>
   </trkpt>
   <trkpt lat="47.184526" lon="3.683161">
    <ele>273</ele>
    <time>2020-05-22T17:35:10+02:00</time>
   </trkpt>
   <trkpt lat="47.184038" lon="3.681766">
    <ele>275</ele>
    <time>2020-05-22T17:35:15+02:00</time>
   </trkpt>
   <trkpt lat="47.183476" lon="3.681101">
    <ele>279</ele>
    <time>2020-05-22T17:35:20+02:00</time>
   </trkpt>
   <trkpt lat="47.18328" lon="3.680355">
    <ele>279</ele>
    <time>2020-05-22T17:35:25+02:00</time>
   </trkpt>
   <trkpt lat="47.183072" lon="3.679229">
    <ele>275</ele>
    <time>2020-05-22T17:35:30+02:00</time>
   </trkpt>
   <trkpt lat="47.183371" lon="3.677868">
    <ele>276</ele>
    <time>2020-05-22T17:35:35+02:00</time>
   </trkpt>
   <trkpt lat="47.18367" lon="3.677201">
    <ele>273</ele>
    <time>2020-05-22T17:35:40+02:00</time>
   </trkpt>
   <trkpt lat="47.183838" lon="3.676323">
    <ele>269</ele>
    <time>2020-05-22T17:35:45+02:00</time>
   </trkpt>
   <trkpt lat="47.183764" lon="3.67549">
    <ele>269</ele>
    <time>2020-05-22T17:35:50+02:00</time>
   </trkpt>
   <trkpt lat="47.183546" lon="3.674778">
    <ele>270</ele>
    <time>2020-05-22T17:35:55+02:00</time>
   </trkpt>
   <trkpt lat="47.183196" lon="3.674091">
    <ele>269</ele>
    <time>2020-05-22T17:36:00+02:00</time>
   </trkpt>
   <trkpt lat="47.182543" lon="3.673591">
    <ele>269</ele>
    <time>2020-05-22T17:36:05+02:00</time>
   </trkpt>
   <trkpt lat="47.182178" lon="3.673499">
    <ele>268</ele>
    <time>2020-05-22T17:36:10+02:00</time>
   </trkpt>
   <trkpt lat="47.18095" lon="3.673896">
    <ele>270</ele>
    <time>2020-05-22T17:36:15+02:00</time>
   </trkpt>
   <trkpt lat="47.180126" lon="3.67446">
    <ele>273</ele>
    <time>2020-05-22T17:36:20+02:00</time>
   </trkpt>
   <trkpt lat="47.179659" lon="3.674696">
    <ele>274</ele>
    <time>2020-05-22T17:36:25+02:00</time>
   </trkpt>
   <trkpt lat="47.179138" lon="3.674551">
    <ele>273</ele>
    <time>2020-05-22T17:36:30+02:00</time>
   </trkpt>
   <trkpt lat="47.17879" lon="3.674649">
    <ele>274</ele>
    <time>2020-05-22T17:36:35+02:00</time>
   </trkpt>
   <trkpt lat="47.178175" lon="3.67505">
    <ele>275</ele>
    <time>2020-05-22T17:36:40+02:00</time>
   </trkpt>
   <trkpt lat="47.177945" lon="3.675028">
    <ele>274</ele>
    <time>2020-05-22T17:36:45+02:00</time>
   </trkpt>
   <trkpt lat="47.177916" lon="3.674476">
    <ele>276</ele>
    <time>2020-05-22T17:36:50+02:00</time>
   </trkpt>
   <trkpt lat="47.17806" lon="3.674091">
    <ele>278</ele>
    <time>2020-05-22T17:36:55+02:00</time>
   </trkpt>
   <trkpt lat="47.178469" lon="3.673748">
    <ele>278</ele>
    <time>2020-05-22T17:37:00+02:00</time>
   </trkpt>
   <trkpt lat="47.179356" lon="3.672963">
    <ele>272</ele>
    <time>2020-05-22T17:37:05+02:00</time>
   </trkpt>
   <trkpt lat="47.179519" lon="3.672718">
    <ele>269</ele>
    <time>2020-05-22T17:37:10+02:00</time>
   </trkpt>
   <trkpt lat="47.179169" lon="3.672117">
    <ele>269</ele>
    <time>2020-05-22T17:37:15+02:00</time>
   </trkpt>
   <trkpt lat="47.178813" lon="3.671536">
    <ele>270</ele>
    <time>2020-05-22T17:37:20+02:00</time>
   </trkpt>
   <trkpt lat="47.178448" lon="3.670882">
    <ele>273</ele>
    <time>2020-05-22T17:37:25+02:00</time>
   </trkpt>
   <trkpt lat="47.177942" lon="3.669621">
    <ele>272</ele>
    <time>2020-05-22T17:37:30+02:00</time>
   </trkpt>
   <trkpt lat="47.177623" lon="3.66877">
    <ele>273</ele>
    <time>2020-05-22T17:37:35+02:00</time>
   </trkpt>
   <trkpt lat="47.177347" lon="3.667416">
    <ele>270</ele>
    <time>2020-05-22T17:37:40+02:00</time>
   </trkpt>
   <trkpt lat="47.177034" lon="3.666729">
    <ele>275</ele>
    <time>2020-05-22T17:37:45+02:00</time>
   </trkpt>
   <trkpt lat="47.176923" lon="3.66598">
    <ele>276</ele>
    <time>2020-05-22T17:37:50+02:00</time>
   </trkpt>
   <trkpt lat="47.176864" lon="3.665208">
    <ele>278</ele>
    <time>2020-05-22T17:37:55+02:00</time>
   </trkpt>
   <trkpt lat="47.176864" lon="3.664564">
    <ele>279</ele>
    <time>2020-05-22T17:38:00+02:00</time>
   </trkpt>
   <trkpt lat="47.176979" lon="3.663752">
    <ele>276</ele>
    <time>2020-05-22T17:38:05+02:00</time>
   </trkpt>
   <trkpt lat="47.177302" lon="3.663448">
    <ele>270</ele>
    <time>2020-05-22T17:38:10+02:00</time>
   </trkpt>
   <trkpt lat="47.177302" lon="3.662848">
    <ele>269</ele>
    <time>2020-05-22T17:38:15+02:00</time>
   </trkpt>
   <trkpt lat="47.177214" lon="3.662161">
    <ele>269</ele>
    <time>2020-05-22T17:38:20+02:00</time>
   </trkpt>
   <trkpt lat="47.17687" lon="3.66166">
    <ele>270</ele>
    <time>2020-05-22T17:38:25+02:00</time>
   </trkpt>
   <trkpt lat="47.177154" lon="3.661156">
    <ele>271</ele>
    <time>2020-05-22T17:38:30+02:00</time>
   </trkpt>
   <trkpt lat="47.177541" lon="3.66158">
    <ele>266</ele>
    <time>2020-05-22T17:38:35+02:00</time>
   </trkpt>
   <trkpt lat="47.177832" lon="3.661885">
    <ele>268</ele>
    <time>2020-05-22T17:38:40+02:00</time>
   </trkpt>
   <trkpt lat="47.177945" lon="3.662513">
    <ele>269</ele>
    <time>2020-05-22T17:38:45+02:00</time>
   </trkpt>
   <trkpt lat="47.177858" lon="3.663259">
    <ele>270</ele>
    <time>2020-05-22T17:38:50+02:00</time>
   </trkpt>
   <trkpt lat="47.177675" lon="3.663854">
    <ele>267</ele>
    <time>2020-05-22T17:38:55+02:00</time>
   </trkpt>
   <trkpt lat="47.177419" lon="3.665036">
    <ele>265</ele>
    <time>2020-05-22T17:39:00+02:00</time>
   </trkpt>
   <trkpt lat="47.17736" lon="3.665422">
    <ele>266</ele>
    <time>2020-05-22T17:39:05+02:00</time>
   </trkpt>
   <trkpt lat="47.178015" lon="3.667137">
    <ele>264</ele>
    <time>2020-05-22T17:39:10+02:00</time>
   </trkpt>
   <trkpt lat="47.178965" lon="3.669929">
    <ele>257</ele>
    <time>2020-05-22T17:39:15+02:00</time>
   </trkpt>
   <trkpt lat="47.179402" lon="3.670701">
    <ele>255</ele>
    <time>2020-05-22T17:39:20+02:00</time>
   </trkpt>
   <trkpt lat="47.179956" lon="3.671259">
    <ele>253</ele>
    <time>2020-05-22T17:39:25+02:00</time>
   </trkpt>
   <trkpt lat="47.180691" lon="3.671488">
    <ele>254</ele>
    <time>2020-05-22T17:39:30+02:00</time>
   </trkpt>
   <trkpt lat="47.181617" lon="3.67182">
    <ele>254</ele>
    <time>2020-05-22T17:39:35+02:00</time>
   </trkpt>
   <trkpt lat="47.182698" lon="3.671903">
    <ele>254</ele>
    <time>2020-05-22T17:39:40+02:00</time>
   </trkpt>
   <trkpt lat="47.18321" lon="3.671826">
    <ele>256</ele>
    <time>2020-05-22T17:39:45+02:00</time>
   </trkpt>
   <trkpt lat="47.183837" lon="3.672351">
    <ele>253</ele>
    <time>2020-05-22T17:39:50+02:00</time>
   </trkpt>
   <trkpt lat="47.184478" lon="3.672847">
    <ele>251</ele>
    <time>2020-05-22T17:39:55+02:00</time>
   </trkpt>
   <trkpt lat="47.184986" lon="3.67395">
    <ele>244</ele>
    <time>2020-05-22T17:40:00+02:00</time>
   </trkpt>
   <trkpt lat="47.185183" lon="3.674535">
    <ele>248</ele>
    <time>2020-05-22T17:40:05+02:00</time>
   </trkpt>
   <trkpt lat="47.185003" lon="3.67658">
    <ele>246</ele>
    <time>2020-05-22T17:40:10+02:00</time>
   </trkpt>
   <trkpt lat="47.184756" lon="3.678628">
    <ele>247</ele>
    <time>2020-05-22T17:40:15+02:00</time>
   </trkpt>
   <trkpt lat="47.184789" lon="3.67917">
    <ele>246</ele>
    <time>2020-05-22T17:40:20+02:00</time>
   </trkpt>
   <trkpt lat="47.185044" lon="3.679862">
    <ele>239</ele>
    <time>2020-05-22T17:40:25+02:00</time>
   </trkpt>
   <trkpt lat="47.185673" lon="3.680829">
    <ele>247</ele>
    <time>2020-05-22T17:40:30+02:00</time>
   </trkpt>
   <trkpt lat="47.186082" lon="3.681559">
    <ele>250</ele>
    <time>2020-05-22T17:40:35+02:00</time>
   </trkpt>
   <trkpt lat="47.186306" lon="3.682259">
    <ele>252</ele>
    <time>2020-05-22T17:40:40+02:00</time>
   </trkpt>
   <trkpt lat="47.186344" lon="3.682932">
    <ele>249</ele>
    <time>2020-05-22T17:40:45+02:00</time>
   </trkpt>
   <trkpt lat="47.18694" lon="3.685408">
    <ele>242</ele>
    <time>2020-05-22T17:40:50+02:00</time>
   </trkpt>
   <trkpt lat="47.187482" lon="3.687181">
    <ele>231</ele>
    <time>2020-05-22T17:40:55+02:00</time>
   </trkpt>
   <trkpt lat="47.188182" lon="3.687953">
    <ele>231</ele>
    <time>2020-05-22T17:41:00+02:00</time>
   </trkpt>
   <trkpt lat="47.189611" lon="3.688983">
    <ele>227</ele>
    <time>2020-05-22T17:41:05+02:00</time>
   </trkpt>
   <trkpt lat="47.191584" lon="3.691642">
    <ele>225</ele>
    <time>2020-05-22T17:41:10+02:00</time>
   </trkpt>
   <trkpt lat="47.193344" lon="3.694133">
    <ele>220</ele>
    <time>2020-05-22T17:41:15+02:00</time>
   </trkpt>
   <trkpt lat="47.194073" lon="3.695077">
    <ele>221</ele>
    <time>2020-05-22T17:41:20+02:00</time>
   </trkpt>
   <trkpt lat="47.194373" lon="3.695247">
    <ele>220</ele>
    <time>2020-05-22T17:41:25+02:00</time>
   </trkpt>
   <trkpt lat="47.194685" lon="3.695163">
    <ele>220</ele>
    <time>2020-05-22T17:41:30+02:00</time>
   </trkpt>
   <trkpt lat="47.195128" lon="3.694839">
    <ele>219</ele>
    <time>2020-05-22T17:41:35+02:00</time>
   </trkpt>
   <trkpt lat="47.195273" lon="3.694362">
    <ele>219</ele>
    <time>2020-05-22T17:41:40+02:00</time>
   </trkpt>
   <trkpt lat="47.195356" lon="3.693918">
    <ele>220</ele>
    <time>2020-05-22T17:41:45+02:00</time>
   </trkpt>
   <trkpt lat="47.19562" lon="3.693439">
    <ele>219</ele>
    <time>2020-05-22T17:41:50+02:00</time>
   </trkpt>
   <trkpt lat="47.196406" lon="3.692373">
    <ele>221</ele>
    <time>2020-05-22T17:41:55+02:00</time>
   </trkpt>
   <trkpt lat="47.196644" lon="3.692066">
    <ele>223</ele>
    <time>2020-05-22T17:42:00+02:00</time>
   </trkpt>
   <trkpt lat="47.19693" lon="3.69203">
    <ele>221</ele>
    <time>2020-05-22T17:42:05+02:00</time>
   </trkpt>
   <trkpt lat="47.198025" lon="3.690537">
    <ele>218</ele>
    <time>2020-05-22T17:42:10+02:00</time>
   </trkpt>
   <trkpt lat="47.200573" lon="3.686868">
    <ele>214</ele>
    <time>2020-05-22T17:42:15+02:00</time>
   </trkpt>
   <trkpt lat="47.200799" lon="3.687141">
    <ele>213</ele>
    <time>2020-05-22T17:42:20+02:00</time>
   </trkpt>
   <trkpt lat="47.201145" lon="3.687683">
    <ele>212</ele>
    <time>2020-05-22T17:42:25+02:00</time>
   </trkpt>
   <trkpt lat="47.201654" lon="3.688125">
    <ele>213</ele>
    <time>2020-05-22T17:42:30+02:00</time>
   </trkpt>
   <trkpt lat="47.20186" lon="3.688488">
    <ele>214</ele>
    <time>2020-05-22T17:42:35+02:00</time>
   </trkpt>
   <trkpt lat="47.201634" lon="3.689281">
    <ele>217</ele>
    <time>2020-05-22T17:42:40+02:00</time>
   </trkpt>
   <trkpt lat="47.201495" lon="3.689759">
    <ele>219</ele>
    <time>2020-05-22T17:42:45+02:00</time>
   </trkpt>
   <trkpt lat="47.201479" lon="3.69027">
    <ele>220</ele>
    <time>2020-05-22T17:42:50+02:00</time>
   </trkpt>
   <trkpt lat="47.201626" lon="3.6911">
    <ele>223</ele>
    <time>2020-05-22T17:42:55+02:00</time>
   </trkpt>
   <trkpt lat="47.202133" lon="3.69184">
    <ele>229</ele>
    <time>2020-05-22T17:43:00+02:00</time>
   </trkpt>
   <trkpt lat="47.202035" lon="3.692602">
    <ele>234</ele>
    <time>2020-05-22T17:43:05+02:00</time>
   </trkpt>
   <trkpt lat="47.202016" lon="3.693058">
    <ele>235</ele>
    <time>2020-05-22T17:43:10+02:00</time>
   </trkpt>
   <trkpt lat="47.2011" lon="3.694433">
    <ele>232</ele>
    <time>2020-05-22T17:43:15+02:00</time>
   </trkpt>
   <trkpt lat="47.200896" lon="3.695163">
    <ele>234</ele>
    <time>2020-05-22T17:43:20+02:00</time>
   </trkpt>
   <trkpt lat="47.200712" lon="3.695912">
    <ele>237</ele>
    <time>2020-05-22T17:43:25+02:00</time>
   </trkpt>
   <trkpt lat="47.200575" lon="3.696794">
    <ele>238</ele>
    <time>2020-05-22T17:43:30+02:00</time>
   </trkpt>
   <trkpt lat="47.200546" lon="3.697008">
    <ele>239</ele>
    <time>2020-05-22T17:43:35+02:00</time>
   </trkpt>
   <trkpt lat="47.200398" lon="3.697457">
    <ele>239</ele>
    <time>2020-05-22T17:43:40+02:00</time>
   </trkpt>
   <trkpt lat="47.199905" lon="3.697952">
    <ele>237</ele>
    <time>2020-05-22T17:43:45+02:00</time>
   </trkpt>
   <trkpt lat="47.199691" lon="3.69839">
    <ele>237</ele>
    <time>2020-05-22T17:43:50+02:00</time>
   </trkpt>
   <trkpt lat="47.199892" lon="3.698583">
    <ele>238</ele>
    <time>2020-05-22T17:43:55+02:00</time>
   </trkpt>
   <trkpt lat="47.200138" lon="3.698553">
    <ele>239</ele>
    <time>2020-05-22T17:44:00+02:00</time>
   </trkpt>
   <trkpt lat="47.201421" lon="3.700012">
    <ele>252</ele>
    <time>2020-05-22T17:44:05+02:00</time>
   </trkpt>
   <trkpt lat="47.201596" lon="3.700227">
    <ele>253</ele>
    <time>2020-05-22T17:44:10+02:00</time>
   </trkpt>
   <trkpt lat="47.201654" lon="3.700956">
    <ele>251</ele>
    <time>2020-05-22T17:44:15+02:00</time>
   </trkpt>
   <trkpt lat="47.201608" lon="3.701571">
    <ele>248</ele>
    <time>2020-05-22T17:44:20+02:00</time>
   </trkpt>
   <trkpt lat="47.201637" lon="3.702108">
    <ele>245</ele>
    <time>2020-05-22T17:44:25+02:00</time>
   </trkpt>
   <trkpt lat="47.202383" lon="3.705033">
    <ele>240</ele>
    <time>2020-05-22T17:44:30+02:00</time>
   </trkpt>
   <trkpt lat="47.202558" lon="3.705634">
    <ele>235</ele>
    <time>2020-05-22T17:44:35+02:00</time>
   </trkpt>
   <trkpt lat="47.20215" lon="3.706278">
    <ele>228</ele>
    <time>2020-05-22T17:44:40+02:00</time>
   </trkpt>
   <trkpt lat="47.20139" lon="3.707129">
    <ele>224</ele>
    <time>2020-05-22T17:44:45+02:00</time>
   </trkpt>
   <trkpt lat="47.201087" lon="3.707386">
    <ele>224</ele>
    <time>2020-05-22T17:44:50+02:00</time>
   </trkpt>
   <trkpt lat="47.201025" lon="3.70766">
    <ele>222</ele>
    <time>2020-05-22T17:44:55+02:00</time>
   </trkpt>
   <trkpt lat="47.200138" lon="3.706836">
    <ele>235</ele>
    <time>2020-05-22T17:45:00+02:00</time>
   </trkpt>
   <trkpt lat="47.19898" lon="3.705913">
    <ele>242</ele>
    <time>2020-05-22T17:45:05+02:00</time>
   </trkpt>
   <trkpt lat="47.198525" lon="3.705423">
    <ele>245</ele>
    <time>2020-05-22T17:45:10+02:00</time>
   </trkpt>
   <trkpt lat="47.197231" lon="3.702458">
    <ele>240</ele>
    <time>2020-05-22T17:45:15+02:00</time>
   </trkpt>
   <trkpt lat="47.19691" lon="3.702344">
    <ele>239</ele>
    <time>2020-05-22T17:45:20+02:00</time>
   </trkpt>
   <trkpt lat="47.196551" lon="3.702587">
    <ele>239</ele>
    <time>2020-05-22T17:45:25+02:00</time>
   </trkpt>
   <trkpt lat="47.196181" lon="3.702693">
    <ele>238</ele>
    <time>2020-05-22T17:45:30+02:00</time>
   </trkpt>
   <trkpt lat="47.195729" lon="3.702501">
    <ele>236</ele>
    <time>2020-05-22T17:45:35+02:00</time>
   </trkpt>
   <trkpt lat="47.195189" lon="3.702169">
    <ele>234</ele>
    <time>2020-05-22T17:45:40+02:00</time>
   </trkpt>
   <trkpt lat="47.194723" lon="3.701791">
    <ele>231</ele>
    <time>2020-05-22T17:45:45+02:00</time>
   </trkpt>
   <trkpt lat="47.193834" lon="3.700777">
    <ele>223</ele>
    <time>2020-05-22T17:45:50+02:00</time>
   </trkpt>
   <trkpt lat="47.19324" lon="3.699926">
    <ele>221</ele>
    <time>2020-05-22T17:45:55+02:00</time>
   </trkpt>
   <trkpt lat="47.193025" lon="3.700195">
    <ele>222</ele>
    <time>2020-05-22T17:46:00+02:00</time>
   </trkpt>
  </trkseg>
 </trk></gpx>